Time;durP1;ratioP1;P1;durP2;ratioP2;P2;SDS_P1;SDS_P2;PMS_P1;PMS_P2;Temp;Humidity;BMP_temperature;BMP_pressure;BME280_temperature;BME280_humidity;BME280_pressure;Samples;Min_cycle;Max_cycle;Signal;HPM_P1;HPM_P2
2023/01/18 00:00:58;;;;;;;100.03;24.08;;;1.90;99.90;;;0.59;100.00;94396.50;5070605;28;20437;-75
2023/01/18 00:03:25;;;;;;;61.22;21.27;;;1.90;99.90;;;0.59;100.00;94389.47;5070403;28;20903;-75
2023/01/18 00:05:52;;;;;;;84.75;24.10;;;1.90;99.90;;;0.60;100.00;94398.81;5070505;28;20415;-75
2023/01/18 00:08:18;;;;;;;98.18;25.77;;;1.90;99.90;;;0.58;100.00;94394.94;5070746;28;20426;-76
2023/01/18 00:10:44;;;;;;;103.00;27.75;;;1.90;99.90;;;0.56;100.00;94390.00;5070763;28;20979;-76
2023/01/18 00:13:12;;;;;;;92.57;24.83;;;1.90;99.90;;;0.54;100.00;94399.09;5070322;28;20408;-75
2023/01/18 00:15:38;;;;;;;105.72;27.90;;;1.90;99.90;;;0.54;100.00;94394.66;5070586;28;20411;-75
2023/01/18 00:18:04;;;;;;;97.57;28.03;;;1.90;99.90;;;0.55;100.00;94398.06;5070696;28;20410;-76
2023/01/18 00:20:31;;;;;;;86.90;26.15;;;1.90;99.90;;;0.52;100.00;94401.97;5070433;28;20410;-76
2023/01/18 00:22:59;;;;;;;97.07;27.42;;;1.90;99.90;;;0.53;100.00;94398.31;5070439;28;20399;-75
2023/01/18 00:25:25;;;;;;;111.22;28.90;;;1.90;99.90;;;0.51;100.00;94395.22;5070115;28;20494;-75
2023/01/18 00:27:53;;;;;;;83.25;26.17;;;1.90;99.90;;;0.52;100.00;94396.78;5070479;28;20743;-75
2023/01/18 00:30:24;;;;;;;123.68;30.42;;;1.90;99.90;;;0.52;100.00;94396.00;5070346;28;20869;-75
2023/01/18 00:32:54;;;;;;;110.10;29.05;;;1.90;99.90;;;0.52;100.00;94394.16;5070184;28;20484;-74
2023/01/18 00:35:22;;;;;;;116.03;31.85;;;1.90;99.90;;;0.53;100.00;94406.13;5069971;28;20387;-75
2023/01/18 00:37:50;;;;;;;92.53;28.33;;;1.90;99.90;;;0.51;100.00;94392.59;5070221;28;20415;-75
2023/01/18 00:40:17;;;;;;;98.80;28.20;;;1.90;99.90;;;0.53;100.00;94403.50;5070204;28;20456;-75
2023/01/18 00:45:29;;;;;;;113.00;30.70;;;1.90;99.90;;;0.52;100.00;94409.78;5069958;28;20441;-75
2023/01/18 00:47:55;;;;;;;115.50;30.80;;;1.90;99.90;;;0.51;100.00;94405.63;5070033;28;20461;-75
2023/01/18 00:50:21;;;;;;;150.05;36.53;;;1.80;99.90;;;0.51;100.00;94404.84;5070173;28;21089;-75
2023/01/18 00:52:48;;;;;;;161.43;36.75;;;1.90;99.90;;;0.50;100.00;94411.84;5070039;28;20485;-75
2023/01/18 00:55:15;;;;;;;106.90;32.22;;;1.80;99.90;;;0.51;100.00;94417.84;5069689;28;20410;-74
2023/01/18 00:57:42;;;;;;;158.50;37.83;;;1.80;99.90;;;0.49;100.00;94412.91;5070890;28;20396;-75
2023/01/18 01:00:11;;;;;;;114.18;31.45;;;1.80;99.90;;;0.46;100.00;94412.63;5074197;28;20425;-75
2023/01/18 01:02:39;;;;;;;115.18;32.45;;;1.80;99.90;;;0.44;100.00;94412.91;5055758;28;20415;-75
2023/01/18 01:07:55;;;;;;;126.40;32.95;;;1.80;99.90;;;0.45;100.00;94414.47;5074173;28;20387;-76
2023/01/18 01:10:21;;;;;;;153.70;34.67;;;1.80;99.90;;;0.45;100.00;94411.09;5073965;28;20736;-77
2023/01/18 01:26:32;;;;;;;101.80;30.05;;;1.70;99.90;;;0.39;100.00;94424.06;5073550;28;20427;-77
2023/01/18 01:28:58;;;;;;;106.03;30.38;;;1.70;99.90;;;0.40;100.00;94427.47;5073700;28;20412;-76
2023/01/18 01:31:24;;;;;;;129.90;32.87;;;1.70;99.90;;;0.42;100.00;94430.59;5073431;28;20402;-76
2023/01/18 01:33:52;;;;;;;114.25;29.70;;;1.80;99.90;;;0.42;100.00;94437.63;5073236;28;20499;-76
2023/01/18 01:36:26;;;;;;;119.38;29.88;;;1.80;99.90;;;0.41;100.00;94442.03;5073469;28;20396;-76
2023/01/18 01:38:52;;;;;;;104.30;29.38;;;1.80;99.90;;;0.41;100.00;94439.44;5073396;28;20406;-76
2023/01/18 01:41:24;;;;;;;98.88;29.48;;;1.70;99.90;;;0.42;100.00;94433.19;5073429;28;20399;-76
2023/01/18 01:43:54;;;;;;;141.60;33.13;;;1.80;99.90;;;0.43;100.00;94439.19;5072955;28;20785;-77
2023/01/18 01:46:45;;;;;;;145.25;35.70;;;1.80;99.90;;;0.44;100.00;94438.91;5073102;28;20399;-76
2023/01/18 01:49:19;;;;;;;130.43;33.87;;;1.80;99.90;;;0.38;100.00;94438.13;5073055;28;20873;-76
2023/01/18 01:51:50;;;;;;;117.57;32.72;;;1.80;99.90;;;0.35;100.00;94443.84;5073011;28;20415;-76
2023/01/18 01:54:24;;;;;;;104.20;32.75;;;1.70;99.90;;;0.36;100.00;94448.03;5072788;28;20410;-76
2023/01/18 01:56:55;;;;;;;171.80;39.90;;;1.70;99.90;;;0.35;100.00;94445.69;5072942;28;20495;-74
2023/01/18 01:59:22;;;;;;;130.00;36.08;;;1.70;99.90;;;0.32;100.00;94448.78;5072991;28;20388;-74
2023/01/18 02:01:48;;;;;;;127.03;32.92;;;1.70;99.90;;;0.28;100.00;94456.34;5072688;28;20396;-74
2023/01/18 02:04:16;;;;;;;127.05;32.75;;;1.60;99.90;;;0.29;100.00;94457.13;5072604;28;20418;-73
2023/01/18 02:06:42;;;;;;;151.30;35.78;;;1.60;99.90;;;0.33;100.00;94466.75;5072957;28;20389;-74
2023/01/18 02:09:12;;;;;;;135.93;35.63;;;1.70;99.90;;;0.34;100.00;94460.50;5072301;28;20975;-74
2023/01/18 02:11:39;;;;;;;133.55;33.63;;;1.70;99.90;;;0.33;100.00;94458.94;5072723;28;20490;-74
2023/01/18 02:14:09;;;;;;;103.88;29.17;;;1.70;99.90;;;0.31;100.00;94460.22;5072582;28;20396;-74
2023/01/18 02:16:57;;;;;;;124.85;31.52;;;1.70;99.90;;;0.32;100.00;94459.19;5072394;28;20483;-74
2023/01/18 02:20:18;;;;;;;119.57;32.10;;;1.70;99.90;;;0.33;100.00;94456.34;5072637;28;20406;-75
2023/01/18 02:23:21;;;;;;;204.88;40.28;;;1.70;99.90;;;0.35;100.00;94456.09;5067971;28;20495;-74
2023/01/18 02:26:15;;;;;;;155.20;39.30;;;1.70;99.90;;;0.29;100.00;94465.72;5072311;28;20416;-74
2023/01/18 02:28:51;;;;;;;147.07;37.75;;;1.60;99.90;;;0.24;100.00;94462.28;5072493;28;20423;-74
2023/01/18 02:31:21;;;;;;;157.00;39.22;;;1.60;99.90;;;0.25;100.00;94469.84;5072246;28;20391;-74
2023/01/18 02:34:01;;;;;;;128.27;37.63;;;1.60;99.90;;;0.24;100.00;94472.69;5071965;28;20931;-74
2023/01/18 02:36:36;;;;;;;167.93;41.72;;;1.60;99.90;;;0.21;100.00;94471.41;5072145;28;20430;-74
2023/01/18 02:39:22;;;;;;;136.10;36.25;;;1.50;99.90;;;0.19;100.00;94477.91;5072244;28;20396;-74
2023/01/18 02:47:30;;;;;;;152.38;37.20;;;1.60;99.90;;;0.22;100.00;94488.59;5072045;28;20856;-74
2023/01/18 02:49:56;;;;;;;146.93;37.33;;;1.60;99.90;;;0.23;100.00;94487.53;5071929;28;20912;-74
2023/01/18 02:52:40;;;;;;;182.65;38.47;;;1.60;99.90;;;0.22;100.00;94488.59;5071814;28;20398;-74
2023/01/18 02:55:13;;;;;;;135.75;36.65;;;1.60;99.90;;;0.21;100.00;94492.22;5071536;28;20439;-74
2023/01/18 02:57:39;;;;;;;156.75;38.30;;;1.50;99.90;;;0.23;100.00;94489.34;5071831;28;20483;-73
2023/01/18 03:00:10;;;;;;;145.18;37.35;;;1.60;99.90;;;0.23;100.00;94497.16;5071738;28;20399;-73
2023/01/18 03:02:38;;;;;;;147.82;36.85;;;1.60;99.90;;;0.19;100.00;94498.72;5071638;28;20400;-74
2023/01/18 03:05:09;;;;;;;123.03;33.92;;;1.50;99.90;;;0.17;100.00;94496.34;5071422;28;20412;-73
2023/01/18 03:07:44;;;;;;;167.63;37.80;;;1.50;99.90;;;0.18;100.00;94500.53;5071599;28;20481;-73
2023/01/18 03:10:13;;;;;;;154.00;37.40;;;1.50;99.90;;;0.15;100.00;94500.28;5071528;28;20396;-73
2023/01/18 03:12:48;;;;;;;153.63;36.30;;;1.50;99.90;;;0.12;100.00;94498.94;5071489;28;20478;-73
2023/01/18 03:15:27;;;;;;;140.35;37.00;;;1.50;99.90;;;0.14;100.00;94494.28;5071243;28;20396;-73
2023/01/18 03:17:58;;;;;;;153.50;37.85;;;1.50;99.90;;;0.13;100.00;94494.53;5071389;28;20420;-73
2023/01/18 03:20:29;;;;;;;114.80;31.67;;;1.40;99.90;;;0.10;100.00;94492.44;5070212;28;20765;-73
2023/01/18 03:25:49;;;;;;;125.38;33.65;;;1.40;99.90;;;0.10;100.00;94498.41;5071127;28;20482;-73
2023/01/18 03:34:02;;;;;;;124.72;34.35;;;1.40;99.90;;;0.11;100.00;94505.19;5070976;28;21009;-75
2023/01/18 03:36:34;;;;;;;128.18;35.20;;;1.50;99.90;;;0.13;100.00;94507.53;5070985;28;20980;-75
2023/01/18 03:39:05;;;;;;;140.27;33.72;;;1.50;99.90;;;0.12;100.00;94511.97;5071032;28;20749;-73
2023/01/18 03:41:36;;;;;;;138.33;33.10;;;1.50;99.90;;;0.13;100.00;94510.94;5069765;28;21063;-73
2023/01/18 03:44:08;;;;;;;131.13;32.53;;;1.50;99.90;;;0.14;100.00;94511.72;5070664;28;20766;-73
2023/01/18 03:46:36;;;;;;;163.95;35.03;;;1.50;99.90;;;0.16;100.00;94509.59;5070742;28;20400;-74
2023/01/18 03:49:02;;;;;;;150.27;34.88;;;1.50;99.90;;;0.18;100.00;94508.31;5070727;28;20400;-73
2023/01/18 03:51:46;;;;;;;143.63;33.75;;;1.50;99.90;;;0.19;100.00;94522.13;5070782;28;20396;-73
2023/01/18 03:54:20;;;;;;;119.88;30.58;;;1.50;99.90;;;0.19;100.00;94517.69;5069212;28;20856;-74
2023/01/18 03:56:51;;;;;;;109.63;29.60;;;1.50;99.90;;;0.18;100.00;94521.34;5070629;28;20400;-73
2023/01/18 03:59:17;;;;;;;134.40;32.90;;;1.50;99.90;;;0.19;100.00;94525.50;5070708;28;20404;-73
2023/01/18 04:01:46;;;;;;;106.93;29.33;;;1.50;99.90;;;0.19;100.00;94520.28;5070529;28;20487;-73
2023/01/18 04:04:13;;;;;;;103.65;29.33;;;1.50;99.90;;;0.17;100.00;94522.38;5070274;28;20406;-73
2023/01/18 04:06:39;;;;;;;108.63;30.05;;;1.50;99.90;;;0.15;100.00;94526.28;5070642;28;20430;-73
2023/01/18 04:09:07;;;;;;;110.70;30.15;;;1.50;99.90;;;0.13;100.00;94531.72;5070476;28;20400;-73
2023/01/18 04:11:33;;;;;;;107.05;28.88;;;1.50;99.90;;;0.11;100.00;94531.19;5070553;28;20396;-73
2023/01/18 04:13:59;;;;;;;146.07;33.33;;;1.40;99.90;;;0.11;100.00;94543.41;5070114;28;20395;-73
2023/01/18 04:16:24;;;;;;;118.10;31.30;;;1.50;99.90;;;0.09;100.00;94548.88;5070478;28;20403;-73
2023/01/18 04:18:52;;;;;;;150.17;36.37;;;1.50;99.90;;;0.09;100.00;94543.66;5070205;28;20477;-75
2023/01/18 04:21:18;;;;;;;135.23;36.28;;;1.40;99.90;;;0.08;100.00;94549.91;5070353;28;20397;-75
2023/01/18 04:23:44;;;;;;;145.48;37.15;;;1.40;99.90;;;0.09;100.00;94554.06;5070191;28;20403;-75
2023/01/18 04:26:12;;;;;;;146.73;37.72;;;1.40;99.90;;;0.08;100.00;94565.50;5070181;28;20507;-73
2023/01/18 04:28:38;;;;;;;162.40;38.10;;;1.40;99.90;;;0.03;100.00;94564.69;5070344;28;20403;-73
2023/01/18 04:31:04;;;;;;;146.38;37.20;;;1.40;99.90;;;0.02;100.00;94566.53;5070325;28;20422;-73
2023/01/18 04:33:30;;;;;;;130.50;36.53;;;1.40;99.90;;;0.07;100.00;94570.97;5069849;28;20411;-72
2023/01/18 04:35:57;;;;;;;160.87;38.37;;;1.40;99.90;;;0.03;100.00;94570.69;5070218;28;20428;-72
2023/01/18 04:38:23;;;;;;;120.75;35.35;;;1.40;99.90;;;0.02;100.00;94573.53;5070225;28;20734;-72
2023/01/18 04:40:49;;;;;;;130.20;36.47;;;1.30;99.90;;;-0.02;100.00;94570.69;5070346;28;20495;-73
2023/01/18 04:43:15;;;;;;;146.43;38.50;;;1.30;99.90;;;-0.03;100.00;94576.91;5069989;28;20404;-73
2023/01/18 04:45:41;;;;;;;125.97;34.60;;;1.30;99.90;;;-0.06;100.00;94580.00;5070069;28;20420;-73
2023/01/18 04:48:07;;;;;;;135.03;36.40;;;1.30;99.90;;;-0.07;100.00;94587.03;5070078;28;20402;-73
2023/01/18 04:50:33;;;;;;;116.18;34.75;;;1.30;99.90;;;-0.05;100.00;94584.97;5065946;28;20453;-72
2023/01/18 04:53:00;;;;;;;155.50;40.07;;;1.30;99.90;;;-0.06;100.00;94593.00;5064905;28;20419;-73
2023/01/18 04:55:26;;;;;;;122.25;35.90;;;1.30;99.90;;;-0.10;100.00;94602.34;5066199;28;20403;-73
2023/01/18 04:57:58;;;;;;;121.78;36.78;;;1.20;99.90;;;-0.14;100.00;94599.47;5068639;28;20483;-73
2023/01/18 05:00:24;;;;;;;131.93;37.35;;;1.20;99.90;;;-0.18;100.00;94601.00;5069971;28;20424;-73
2023/01/18 05:02:50;;;;;;;126.70;35.20;;;1.10;99.90;;;-0.19;100.00;94606.47;5069676;28;20400;-73
2023/01/18 05:05:17;;;;;;;116.32;33.88;;;1.20;99.90;;;-0.21;100.00;94606.72;5069548;28;20423;-73
2023/01/18 05:07:43;;;;;;;126.13;36.88;;;1.20;99.90;;;-0.17;100.00;94614.78;5055502;28;20459;-73
2023/01/18 05:10:11;;;;;;;113.75;35.15;;;1.20;99.90;;;-0.18;100.00;94624.41;5049712;28;20401;-73
2023/01/18 05:12:37;;;;;;;120.28;35.28;;;1.10;99.90;;;-0.18;100.00;94624.41;5049716;28;20872;-73
2023/01/18 05:15:04;;;;;;;161.67;38.20;;;1.20;99.90;;;-0.20;100.00;94631.66;5049582;28;20413;-73
2023/01/18 05:17:33;;;;;;;109.38;36.20;;;1.20;99.90;;;-0.15;100.00;94643.94;5049658;28;20404;-73
2023/01/18 05:19:59;;;;;;;108.57;34.50;;;1.20;99.90;;;-0.10;100.00;94652.53;5049676;28;20401;-75
2023/01/18 05:22:26;;;;;;;100.27;30.87;;;1.20;99.90;;;-0.14;100.00;94655.88;5057228;28;20474;-74
2023/01/18 05:24:54;;;;;;;94.63;31.77;;;1.20;99.90;;;-0.16;100.00;94658.75;5069391;28;20412;-74
2023/01/18 05:27:21;;;;;;;88.68;28.77;;;1.20;99.90;;;-0.19;100.00;94664.44;5068219;28;20435;-75
2023/01/18 05:29:47;;;;;;;84.78;28.38;;;1.20;99.90;;;-0.18;100.00;94680.81;5069706;28;20404;-75
2023/01/18 05:32:13;;;;;;;82.95;28.65;;;1.10;99.90;;;-0.20;100.00;94688.84;5069547;28;20410;-75
2023/01/18 05:34:39;;;;;;;87.53;29.02;;;1.20;99.90;;;-0.22;100.00;94684.94;5069165;28;20396;-76
2023/01/18 05:37:05;;;;;;;97.38;31.05;;;1.10;99.90;;;-0.22;100.00;94688.31;5069008;28;20833;-75
2023/01/18 05:39:31;;;;;;;76.63;27.85;;;1.10;99.90;;;-0.18;100.00;94696.41;5057785;28;20395;-75
2023/01/18 05:41:57;;;;;;;70.93;25.60;;;1.10;99.90;;;-0.15;100.00;94695.94;5059956;28;20399;-76
2023/01/18 05:44:24;;;;;;;64.05;24.58;;;1.10;99.90;;;-0.25;100.00;94695.84;5049881;28;20417;-75
2023/01/18 05:46:50;;;;;;;53.17;22.33;;;1.10;99.90;;;-0.27;100.00;94696.09;5035254;28;20758;-75
2023/01/18 05:49:16;;;;;;;52.15;22.67;;;1.10;99.90;;;-0.26;100.00;94702.06;5052962;28;20393;-76
2023/01/18 05:51:41;;;;;;;65.97;24.50;;;1.10;99.90;;;-0.31;100.00;94708.03;5069932;28;20597;-76
2023/01/18 05:54:07;;;;;;;61.75;23.52;;;1.10;99.90;;;-0.32;100.00;94713.47;5071577;28;20422;-76
2023/01/18 05:56:34;;;;;;;71.10;25.77;;;1.00;99.90;;;-0.30;100.00;94719.19;5070543;22;20437;-75
2023/01/18 05:59:00;;;;;;;61.72;23.15;;;1.00;99.90;;;-0.32;100.00;94724.66;5033760;28;20404;-75
2023/01/18 06:01:27;;;;;;;64.20;24.02;;;1.10;99.90;;;-0.31;100.00;94730.63;5051657;28;20433;-75
2023/01/18 06:03:54;;;;;;;62.45;24.00;;;1.10;99.90;;;-0.27;100.00;94739.47;5051555;28;20397;-79
2023/01/18 06:06:20;;;;;;;53.95;21.90;;;1.10;99.90;;;-0.27;100.00;94752.47;5044857;28;20427;-76
2023/01/18 06:08:45;;;;;;;56.60;23.23;;;1.10;99.90;;;-0.22;100.00;94752.50;5052484;28;20406;-77
2023/01/18 06:11:11;;;;;;;68.87;22.07;;;1.10;99.90;;;-0.31;100.00;94762.59;5052820;28;20500;-78
2023/01/18 06:13:37;;;;;;;58.45;22.63;;;1.00;99.90;;;-0.27;100.00;94768.06;5052417;28;20405;-78
2023/01/18 06:16:04;;;;;;;63.47;22.67;;;1.10;99.90;;;-0.30;100.00;94776.38;5052805;28;20456;-77
2023/01/18 06:18:32;;;;;;;60.15;22.80;;;1.00;99.90;;;-0.36;100.00;94778.13;5052066;28;20424;-77
2023/01/18 06:21:00;;;;;;;75.97;24.33;;;1.00;99.90;;;-0.38;100.00;94784.63;5052459;28;20492;-77
2023/01/18 06:23:27;;;;;;;63.67;21.85;;;1.00;99.90;;;-0.41;100.00;94789.28;5052480;28;20393;-77
2023/01/18 06:25:53;;;;;;;85.43;26.30;;;0.90;99.90;;;-0.38;100.00;94784.63;5046611;28;20517;-77
2023/01/18 06:28:21;;;;;;;66.28;24.77;;;1.00;99.90;;;-0.35;100.00;94803.09;5064390;28;20496;-78
2023/01/18 06:30:47;;;;;;;56.03;23.10;;;1.00;99.90;;;-0.42;100.00;94789.50;5052315;28;20790;-78
2023/01/18 06:33:14;;;;;;;57.15;21.80;;;0.90;99.90;;;-0.41;100.00;94806.69;5052189;28;20405;-78
2023/01/18 06:35:42;;;;;;;57.33;22.50;;;0.90;99.90;;;-0.38;100.00;94805.41;5052187;28;20401;-78
2023/01/18 06:38:09;;;;;;;63.92;23.35;;;1.00;99.90;;;-0.38;100.00;94809.56;5044485;28;21027;-78
2023/01/18 06:40:35;;;;;;;58.00;22.85;;;1.00;99.90;;;-0.43;100.00;94808.72;5051247;28;20405;-78
2023/01/18 06:43:01;;;;;;;75.80;24.33;;;0.90;99.90;;;-0.45;100.00;94819.38;5052474;28;20421;-78
2023/01/18 06:45:28;;;;;;;66.15;27.92;;;0.90;99.90;;;-0.55;100.00;94821.88;5051618;28;20798;-78
2023/01/18 06:47:54;;;;;;;78.25;28.90;;;0.80;99.90;;;-0.54;100.00;94827.84;5052201;28;20901;-78
2023/01/18 06:50:21;;;;;;;76.97;28.10;;;0.80;99.90;;;-0.54;100.00;94828.66;5052239;28;20902;-77
2023/01/18 06:52:48;;;;;;;80.07;30.17;;;0.80;99.90;;;-0.56;100.00;94837.69;5051835;28;20402;-77
2023/01/18 06:55:14;;;;;;;96.57;31.67;;;0.80;99.90;;;-0.55;100.00;94839.28;5050569;28;20402;-77
2023/01/18 06:57:41;;;;;;;76.68;29.77;;;0.80;99.90;;;-0.56;100.00;94840.31;5052004;28;20440;-77
2023/01/18 07:00:10;;;;;;;77.65;30.48;;;0.80;99.90;;;-0.57;100.00;94843.91;5051955;28;20740;-77
2023/01/18 07:02:36;;;;;;;95.63;31.40;;;0.80;99.90;;;-0.56;100.00;94841.09;5054866;28;20423;-75
2023/01/18 07:05:04;;;;;;;90.63;30.47;;;0.80;99.90;;;-0.57;100.00;94849.91;5047320;28;20421;-77
2023/01/18 07:07:30;;;;;;;92.73;31.17;;;0.80;99.90;;;-0.54;100.00;94852.03;5045716;28;20519;-77
2023/01/18 07:09:57;;;;;;;72.90;27.42;;;0.80;99.90;;;-0.54;100.00;94859.81;5054739;28;20418;-76
2023/01/18 07:12:23;;;;;;;94.22;30.67;;;0.80;99.90;;;-0.49;100.00;94862.47;5043754;28;21882;-75
2023/01/18 07:14:50;;;;;;;92.35;30.63;;;0.80;99.90;;;-0.53;100.00;94869.19;5058908;28;20403;-76
2023/01/18 07:17:15;;;;;;;74.93;28.38;;;0.90;99.90;;;-0.50;100.00;94873.88;5056929;28;20417;-75
2023/01/18 07:19:43;;;;;;;85.10;30.15;;;0.90;99.90;;;-0.57;100.00;94886.28;5058474;28;20926;-76
2023/01/18 07:22:09;;;;;;;72.70;28.15;;;0.80;99.90;;;-0.59;100.00;94888.31;5049483;28;20818;-77
2023/01/18 07:24:35;;;;;;;78.65;28.25;;;0.70;99.90;;;-0.59;100.00;94890.91;5046765;28;20420;-77
2023/01/18 07:27:02;;;;;;;66.88;26.35;;;0.80;99.90;;;-0.65;100.00;94891.91;5046122;28;20418;-77
2023/01/18 07:29:28;;;;;;;76.80;27.30;;;0.70;99.90;;;-0.65;100.00;94894.50;5056551;28;20417;-77
2023/01/18 07:31:54;;;;;;;78.38;27.95;;;0.70;99.90;;;-0.62;100.00;94901.81;5051047;28;20433;-77
2023/01/18 07:34:20;;;;;;;68.57;27.00;;;0.70;99.90;;;-0.52;100.00;94917.50;5049200;28;20467;-77
2023/01/18 07:36:46;;;;;;;70.70;26.47;;;0.80;99.90;;;-0.51;100.00;94916.47;5053006;28;20792;-77
2023/01/18 07:39:12;;;;;;;66.57;26.38;;;0.80;99.90;;;-0.43;100.00;94925.66;5051125;28;20459;-76
2023/01/18 07:41:38;;;;;;;75.50;26.67;;;0.90;99.90;;;-0.52;100.00;94933.09;5051239;28;20402;-78
2023/01/18 07:44:05;;;;;;;59.00;24.17;;;0.90;99.90;;;-0.56;100.00;94931.22;5051033;28;20401;-78
2023/01/18 07:46:31;;;;;;;66.75;25.48;;;0.80;99.90;;;-0.56;100.00;94937.22;5051001;28;20470;-77
2023/01/18 07:48:57;;;;;;;53.93;23.77;;;0.80;99.90;;;-0.67;100.00;94940.69;5051202;28;20410;-76
2023/01/18 07:51:23;;;;;;;55.67;22.67;;;0.70;99.90;;;-0.61;100.00;94941.56;5049894;28;20429;-76
2023/01/18 07:53:52;;;;;;;63.33;24.00;;;0.70;99.90;;;-0.62;100.00;94942.59;5046861;28;20419;-75
2023/01/18 07:56:18;;;;;;;72.75;25.67;;;0.70;99.90;;;-0.62;100.00;94947.78;5050581;28;20413;-78
2023/01/18 07:58:44;;;;;;;63.30;24.63;;;0.80;99.90;;;-0.57;100.00;94953.03;5051115;28;20483;-75
2023/01/18 08:01:15;;;;;;;60.88;24.55;;;0.80;99.90;;;-0.58;100.00;94957.44;5050841;28;20397;-77
2023/01/18 08:03:43;;;;;;;66.30;24.27;;;0.70;99.90;;;-0.55;100.00;94962.19;5050526;28;20417;-78
2023/01/18 08:06:11;;;;;;;52.20;23.35;;;0.80;99.90;;;-0.67;100.00;94966.69;5050100;28;20409;-77
2023/01/18 08:08:38;;;;;;;62.85;25.85;;;0.60;99.90;;;-0.66;100.00;94968.25;5050711;28;20921;-77
2023/01/18 08:11:06;;;;;;;57.75;24.58;;;0.70;99.90;;;-0.62;100.00;94978.97;5050652;28;20444;-77
2023/01/18 08:13:32;;;;;;;65.53;25.50;;;0.70;99.90;;;-0.59;100.00;94978.47;5050512;28;20523;-77
2023/01/18 08:16:00;;;;;;;69.93;27.50;;;0.70;99.90;;;-0.57;100.00;94979.81;5050269;28;20917;-76
2023/01/18 08:18:28;;;;;;;76.38;28.48;;;0.80;99.90;;;-0.52;100.00;94989.47;5050636;28;20405;-77
2023/01/18 08:20:54;;;;;;;63.90;27.40;;;0.80;99.90;;;-0.41;100.00;94993.78;5050462;28;20413;-76
2023/01/18 08:23:20;;;;;;;67.38;27.88;;;0.90;99.90;;;-0.48;100.00;95001.75;5050260;28;20405;-76
2023/01/18 08:25:46;;;;;;;55.80;25.63;;;0.80;99.90;;;-0.59;100.00;95005.22;5048949;28;20409;-76
2023/01/18 08:28:13;;;;;;;51.13;23.58;;;0.70;99.90;;;-0.38;100.00;95021.91;5050518;28;20824;-76
2023/01/18 08:30:42;;;;;;;64.40;24.85;;;0.90;99.90;;;-0.51;100.00;95019.63;5050453;28;20409;-76
2023/01/18 08:33:09;;;;;;;55.60;24.70;;;0.80;99.90;;;-0.49;100.00;95025.38;5050242;28;20771;-76
2023/01/18 08:35:42;;;;;;;58.92;26.05;;;0.80;99.90;;;-0.51;100.00;95027.41;5050163;28;20508;-77
2023/01/18 08:38:12;;;;;;;63.20;25.50;;;0.80;99.90;;;-0.52;100.00;95029.22;5049413;28;20459;-76
2023/01/18 08:40:39;;;;;;;53.85;24.27;;;0.80;99.90;;;-0.44;100.00;95044.41;5060574;28;20481;-76
2023/01/18 08:43:05;;;;;;;61.45;26.63;;;0.90;99.90;;;-0.43;100.00;95046.00;5048144;28;20450;-77
2023/01/18 08:45:34;;;;;;;51.42;23.27;;;0.90;99.90;;;-0.36;100.00;95060.63;5049387;28;20413;-77
2023/01/18 08:48:05;;;;;;;52.75;23.23;;;0.90;99.90;;;-0.40;100.00;95062.94;5048329;28;20413;-76
2023/01/18 08:50:38;;;;;;;52.30;22.73;;;0.90;99.90;;;-0.33;100.00;95067.94;5048298;28;20488;-76
2023/01/18 08:53:05;;;;;;;54.30;21.80;;;1.00;99.90;;;-0.32;100.00;95078.13;5048441;28;20409;-77
2023/01/18 08:55:35;;;;;;;46.50;21.13;;;1.00;99.90;;;-0.34;100.00;95079.38;5047896;28;21446;-76
2023/01/18 08:58:01;;;;;;;45.60;20.50;;;0.90;99.90;;;-0.32;100.00;95075.50;5049097;28;20401;-77
2023/01/18 09:00:27;;;;;;;35.08;18.67;;;1.00;99.90;;;-0.19;100.00;95079.56;5048988;28;20416;-76
2023/01/18 09:02:53;;;;;;;43.95;20.40;;;1.10;99.90;;;-0.12;100.00;95088.00;5048965;28;20907;-77
2023/01/18 09:05:19;;;;;;;47.28;20.70;;;1.20;99.90;;;-0.10;100.00;95098.94;5049803;28;20910;-76
2023/01/18 09:07:46;;;;;;;36.35;18.35;;;1.20;99.90;;;-0.20;100.00;95086.59;5050179;28;20890;-76
2023/01/18 09:10:14;;;;;;;40.88;19.38;;;1.20;99.90;;;-0.15;100.00;95101.50;5050068;28;20444;-75
2023/01/18 09:12:40;;;;;;;41.70;19.08;;;1.10;99.90;;;-0.15;100.00;95104.09;5049909;28;20475;-76
2023/01/18 09:15:07;;;;;;;39.10;19.17;;;1.10;99.90;;;-0.14;100.00;95105.63;5049850;28;20942;-75
2023/01/18 09:17:33;;;;;;;36.83;17.95;;;1.10;99.90;;;0.00;100.00;95115.44;5048717;28;20996;-75
2023/01/18 09:19:59;;;;;;;45.08;18.75;;;1.20;99.90;;;-0.12;100.00;95111.38;5052948;28;20400;-77
2023/01/18 09:22:25;;;;;;;36.78;18.42;;;1.20;99.90;;;-0.14;100.00;95119.41;5053736;28;20408;-75
2023/01/18 09:24:51;;;;;;;35.45;17.48;;;1.20;99.90;;;-0.05;100.00;95138.00;5053186;28;20440;-75
2023/01/18 09:27:18;;;;;;;35.72;17.00;;;1.20;99.90;;;0.09;100.00;95134.03;5069273;28;20405;-75
2023/01/18 09:29:51;;;;;;;36.40;17.42;;;1.30;99.90;;;-0.02;100.00;95134.94;5053722;28;20401;-75
2023/01/18 09:32:17;;;;;;;35.50;16.85;;;1.30;99.90;;;-0.04;100.00;95155.19;5052475;28;20475;-76
2023/01/18 09:34:45;;;;;;;41.50;18.00;;;1.20;99.90;;;-0.04;100.00;95160.38;5068974;28;20401;-75
2023/01/18 09:37:11;;;;;;;29.92;16.05;;;1.30;99.90;;;0.02;100.00;95159.44;5053589;28;20484;-77
2023/01/18 09:39:36;;;;;;;32.17;15.67;;;1.20;99.90;;;-0.16;100.00;95165.69;5053531;28;20521;-77
2023/01/18 09:42:03;;;;;;;36.55;17.33;;;1.10;99.90;;;-0.15;100.00;95169.09;5053633;28;20492;-77
2023/01/18 09:44:33;;;;;;;37.42;17.42;;;1.10;99.90;;;-0.22;100.00;95176.22;5053340;28;20408;-77
2023/01/18 09:47:04;;;;;;;38.10;17.58;;;1.10;99.90;;;-0.23;100.00;95182.47;5053505;28;20401;-77
2023/01/18 09:49:36;;;;;;;38.92;16.92;;;1.10;99.90;;;-0.19;100.00;95183.56;5053566;28;20397;-77
2023/01/18 09:52:20;;;;;;;50.15;20.10;;;1.10;99.90;;;-0.15;100.00;95187.28;5053275;28;20405;-77
2023/01/18 09:54:55;;;;;;;46.30;20.67;;;1.20;99.90;;;-0.12;100.00;95181.59;5053113;28;20839;-77
2023/01/18 09:57:39;;;;;;;50.60;21.42;;;1.20;99.90;;;-0.05;100.00;95187.41;5053333;28;20405;-75
2023/01/18 10:00:19;;;;;;;39.80;18.27;;;1.30;99.90;;;0.02;100.00;95195.84;5052027;28;20760;-75
2023/01/18 10:02:48;;;;;;;37.60;16.60;;;1.30;99.90;;;-0.06;100.00;95198.84;5053125;28;20886;-75
2023/01/18 10:05:20;;;;;;;38.78;17.60;;;1.20;99.90;;;-0.14;100.00;95202.63;5052827;28;20413;-75
2023/01/18 10:08:01;;;;;;;42.17;19.75;;;1.20;99.90;;;-0.11;100.00;95214.38;5053037;28;20405;-76
2023/01/18 10:10:33;;;;;;;42.70;19.10;;;1.10;99.90;;;-0.28;100.00;95216.97;5053254;28;20401;-76
2023/01/18 10:13:22;;;;;;;39.53;18.88;;;1.00;99.90;;;-0.18;100.00;95206.72;5052994;28;20394;-75
2023/01/18 10:15:50;;;;;;;41.30;19.35;;;1.10;99.90;;;-0.04;100.00;95209.78;5052920;28;20939;-76
2023/01/18 10:18:17;;;;;;;39.80;18.90;;;1.20;99.90;;;0.04;100.00;95208.59;5052941;28;20401;-77
2023/01/18 10:20:49;;;;;;;38.65;18.75;;;1.30;99.90;;;0.22;100.00;95216.94;5052812;28;20433;-75
2023/01/18 10:23:23;;;;;;;35.83;16.77;;;1.40;99.90;;;0.35;100.00;95218.41;5052430;28;20410;-75
2023/01/18 10:25:54;;;;;;;37.05;17.08;;;1.60;99.90;;;0.37;100.00;95222.38;5051137;28;20861;-75
2023/01/18 10:28:34;;;;;;;33.40;16.92;;;1.70;99.90;;;0.63;100.00;95226.06;5052633;28;20407;-77
2023/01/18 10:31:21;;;;;;;35.27;16.03;;;1.80;99.90;;;0.61;100.00;95217.69;5052330;28;20402;-77
2023/01/18 10:33:50;;;;;;;33.10;16.20;;;1.90;99.90;;;0.58;100.00;95225.22;5052319;28;20455;-76
2023/01/18 10:36:21;;;;;;;34.17;16.48;;;1.80;99.90;;;0.52;100.00;95221.78;5052290;28;20818;-77
2023/01/18 10:38:50;;;;;;;36.90;16.08;;;1.80;99.90;;;0.53;100.00;95236.34;5051297;28;20488;-76
2023/01/18 10:41:24;;;;;;;34.07;16.47;;;1.80;99.90;;;0.54;100.00;95235.31;5052431;28;20401;-76
2023/01/18 10:43:50;;;;;;;37.67;18.08;;;1.80;99.90;;;0.47;100.00;95237.31;5050553;28;20480;-75
2023/01/18 10:46:18;;;;;;;31.80;15.82;;;1.70;99.90;;;0.53;100.00;95243.34;5052221;28;20431;-76